sensor_id;sensor_type;location;lat;lon;timestamp;pressure;altitude;pressure_sealevel;temperature;humidity
19510;BME280;9896;42.486;26.506;2023-04-06T00:01:36;99479.31;;;6.28;100.00
19510;BME280;9896;42.486;26.506;2023-04-06T00:04:01;99481.25;;;5.98;100.00
19510;BME280;9896;42.486;26.506;2023-04-06T00:06:27;99467.84;;;5.92;100.00
19510;BME280;9896;42.486;26.506;2023-04-06T00:08:52;99474.91;;;5.99;100.00
19510;BME280;9896;42.486;26.506;2023-04-06T00:11:18;99469.22;;;6.02;100.00
19510;BME280;9896;42.486;26.506;2023-04-06T00:13:44;99483.53;;;6.01;100.00
19510;BME280;9896;42.486;26.506;2023-04-06T00:16:10;99474.72;;;6.01;100.00
19510;BME280;9896;42.486;26.506;2023-04-06T00:18:35;99469.13;;;5.96;100.00
19510;BME280;9896;42.486;26.506;2023-04-06T00:21:02;99470.66;;;6.05;100.00
19510;BME280;9896;42.486;26.506;2023-04-06T00:23:27;99467.56;;;6.01;100.00
19510;BME280;9896;42.486;26.506;2023-04-06T00:25:53;99467.13;;;5.98;100.00
19510;BME280;9896;42.486;26.506;2023-04-06T00:28:18;99467.56;;;6.01;100.00
19510;BME280;9896;42.486;26.506;2023-04-06T00:30:50;99470.22;;;6.01;100.00
19510;BME280;9896;42.486;26.506;2023-04-06T00:33:18;99455.72;;;6.04;100.00
19510;BME280;9896;42.486;26.506;2023-04-06T00:35:43;99461.34;;;6.16;100.00
19510;BME280;9896;42.486;26.506;2023-04-06T00:38:09;99455.16;;;6.08;100.00
19510;BME280;9896;42.486;26.506;2023-04-06T00:40:34;99460.91;;;6.12;100.00
19510;BME280;9896;42.486;26.506;2023-04-06T00:43:00;99459.84;;;6.06;100.00
19510;BME280;9896;42.486;26.506;2023-04-06T00:45:26;99452.56;;;6.15;100.00
19510;BME280;9896;42.486;26.506;2023-04-06T00:47:51;99442.41;;;6.04;100.00
19510;BME280;9896;42.486;26.506;2023-04-06T00:50:17;99446.78;;;6.12;100.00
19510;BME280;9896;42.486;26.506;2023-04-06T00:52:42;99448.50;;;5.98;100.00
19510;BME280;9896;42.486;26.506;2023-04-06T00:55:09;99447.94;;;6.02;100.00
19510;BME280;9896;42.486;26.506;2023-04-06T00:57:35;99448.88;;;5.95;100.00
19510;BME280;9896;42.486;26.506;2023-04-06T01:00:01;99437.53;;;5.86;100.00
19510;BME280;9896;42.486;26.506;2023-04-06T01:02:26;99426.47;;;5.75;100.00
19510;BME280;9896;42.486;26.506;2023-04-06T01:04:52;99431.81;;;5.89;100.00
19510;BME280;9896;42.486;26.506;2023-04-06T01:07:19;99428.22;;;5.82;100.00
19510;BME280;9896;42.486;26.506;2023-04-06T01:09:44;99434.00;;;5.71;100.00
19510;BME280;9896;42.486;26.506;2023-04-06T01:12:10;99425.72;;;5.95;100.00
19510;BME280;9896;42.486;26.506;2023-04-06T01:14:35;99427.13;;;5.77;100.00
19510;BME280;9896;42.486;26.506;2023-04-06T01:17:01;99422.28;;;5.95;100.00
19510;BME280;9896;42.486;26.506;2023-04-06T01:19:28;99411.25;;;5.98;100.00
19510;BME280;9896;42.486;26.506;2023-04-06T01:21:53;99414.53;;;5.85;100.00
19510;BME280;9896;42.486;26.506;2023-04-06T01:24:20;99417.06;;;5.87;100.00
19510;BME280;9896;42.486;26.506;2023-04-06T01:26:45;99415.63;;;6.05;100.00
19510;BME280;9896;42.486;26.506;2023-04-06T01:29:11;99416.81;;;6.03;100.00
19510;BME280;9896;42.486;26.506;2023-04-06T01:31:37;99412.13;;;6.05;100.00
19510;BME280;9896;42.486;26.506;2023-04-06T01:34:03;99411.03;;;5.99;100.00
19510;BME280;9896;42.486;26.506;2023-04-06T01:36:28;99410.69;;;6.02;100.00
19510;BME280;9896;42.486;26.506;2023-04-06T01:38:54;99410.03;;;6.00;100.00
19510;BME280;9896;42.486;26.506;2023-04-06T01:41:19;99409.72;;;5.74;100.00
19510;BME280;9896;42.486;26.506;2023-04-06T01:43:46;99397.13;;;5.83;100.00
19510;BME280;9896;42.486;26.506;2023-04-06T01:46:12;99407.50;;;5.78;100.00
19510;BME280;9896;42.486;26.506;2023-04-06T01:48:37;99402.31;;;6.27;100.00
19510;BME280;9896;42.486;26.506;2023-04-06T01:51:03;99403.81;;;5.93;100.00
19510;BME280;9896;42.486;26.506;2023-04-06T01:53:28;99393.66;;;5.82;100.00
19510;BME280;9896;42.486;26.506;2023-04-06T01:55:54;99410.22;;;5.84;100.00
19510;BME280;9896;42.486;26.506;2023-04-06T01:58:20;99401.97;;;5.43;100.00
19510;BME280;9896;42.486;26.506;2023-04-06T02:00:45;99392.19;;;5.29;100.00
19510;BME280;9896;42.486;26.506;2023-04-06T02:03:11;99393.84;;;5.01;100.00
19510;BME280;9896;42.486;26.506;2023-04-06T02:05:36;99396.50;;;5.15;100.00
19510;BME280;9896;42.486;26.506;2023-04-06T02:08:06;99392.38;;;4.98;100.00
19510;BME280;9896;42.486;26.506;2023-04-06T02:10:33;99383.22;;;5.01;100.00
19510;BME280;9896;42.486;26.506;2023-04-06T02:12:59;99391.75;;;4.96;100.00
19510;BME280;9896;42.486;26.506;2023-04-06T02:15:25;99393.00;;;4.86;100.00
19510;BME280;9896;42.486;26.506;2023-04-06T02:17:51;99392.25;;;4.77;100.00
19510;BME280;9896;42.486;26.506;2023-04-06T02:20:16;99390.97;;;4.73;100.00
19510;BME280;9896;42.486;26.506;2023-04-06T02:22:42;99389.13;;;4.59;100.00
19510;BME280;9896;42.486;26.506;2023-04-06T02:25:08;99399.91;;;4.43;100.00
19510;BME280;9896;42.486;26.506;2023-04-06T02:27:33;99394.81;;;4.56;100.00
19510;BME280;9896;42.486;26.506;2023-04-06T02:29:59;99403.13;;;4.53;100.00
19510;BME280;9896;42.486;26.506;2023-04-06T02:32:25;99409.84;;;4.41;100.00
19510;BME280;9896;42.486;26.506;2023-04-06T02:34:50;99409.47;;;4.29;100.00
19510;BME280;9896;42.486;26.506;2023-04-06T02:37:16;99410.47;;;4.28;100.00
19510;BME280;9896;42.486;26.506;2023-04-06T02:39:41;99413.53;;;3.94;100.00
19510;BME280;9896;42.486;26.506;2023-04-06T02:42:07;99406.22;;;3.96;100.00
19510;BME280;9896;42.486;26.506;2023-04-06T02:44:34;99402.31;;;3.84;100.00
19510;BME280;9896;42.486;26.506;2023-04-06T02:46:59;99406.31;;;3.80;100.00
19510;BME280;9896;42.486;26.506;2023-04-06T02:49:25;99423.47;;;3.69;100.00
19510;BME280;9896;42.486;26.506;2023-04-06T02:51:50;99426.38;;;3.52;100.00
19510;BME280;9896;42.486;26.506;2023-04-06T02:54:16;99418.38;;;3.29;100.00
19510;BME280;9896;42.486;26.506;2023-04-06T02:56:41;99425.81;;;3.34;100.00
19510;BME280;9896;42.486;26.506;2023-04-06T02:59:06;99417.97;;;3.40;100.00
19510;BME280;9896;42.486;26.506;2023-04-06T03:01:32;99418.84;;;3.33;100.00
19510;BME280;9896;42.486;26.506;2023-04-06T03:03:57;99434.75;;;3.33;100.00
19510;BME280;9896;42.486;26.506;2023-04-06T03:06:23;99413.56;;;3.24;100.00
19510;BME280;9896;42.486;26.506;2023-04-06T03:08:48;99430.81;;;3.20;100.00
19510;BME280;9896;42.486;26.506;2023-04-06T03:11:14;99430.84;;;3.04;100.00
19510;BME280;9896;42.486;26.506;2023-04-06T03:13:39;99432.22;;;2.92;100.00
19510;BME280;9896;42.486;26.506;2023-04-06T03:16:05;99461.69;;;2.81;100.00
19510;BME280;9896;42.486;26.506;2023-04-06T03:18:31;99461.03;;;2.71;100.00
19510;BME280;9896;42.486;26.506;2023-04-06T03:20:57;99443.50;;;2.70;100.00
19510;BME280;9896;42.486;26.506;2023-04-06T03:23:22;99444.16;;;2.72;100.00
19510;BME280;9896;42.486;26.506;2023-04-06T03:25:48;99439.00;;;2.87;100.00
19510;BME280;9896;42.486;26.506;2023-04-06T03:28:14;99442.34;;;2.72;100.00
19510;BME280;9896;42.486;26.506;2023-04-06T03:30:40;99448.47;;;2.65;100.00
19510;BME280;9896;42.486;26.506;2023-04-06T03:33:05;99441.53;;;2.56;100.00
19510;BME280;9896;42.486;26.506;2023-04-06T03:35:31;99448.78;;;2.70;100.00
19510;BME280;9896;42.486;26.506;2023-04-06T03:37:56;99445.84;;;2.65;100.00
19510;BME280;9896;42.486;26.506;2023-04-06T03:40:22;99440.38;;;2.58;100.00
19510;BME280;9896;42.486;26.506;2023-04-06T03:42:48;99445.50;;;2.52;100.00
19510;BME280;9896;42.486;26.506;2023-04-06T03:45:13;99435.91;;;2.51;100.00
19510;BME280;9896;42.486;26.506;2023-04-06T03:47:39;99439.19;;;2.45;100.00
19510;BME280;9896;42.486;26.506;2023-04-06T03:50:05;99435.91;;;2.43;100.00
19510;BME280;9896;42.486;26.506;2023-04-06T03:52:31;99431.09;;;2.38;100.00
19510;BME280;9896;42.486;26.506;2023-04-06T03:54:56;99438.41;;;2.44;100.00
19510;BME280;9896;42.486;26.506;2023-04-06T03:57:22;99448.97;;;2.52;100.00
19510;BME280;9896;42.486;26.506;2023-04-06T03:59:47;99449.13;;;2.43;100.00
19510;BME280;9896;42.486;26.506;2023-04-06T04:02:13;99443.00;;;2.34;100.00
19510;BME280;9896;42.486;26.506;2023-04-06T04:04:38;99448.16;;;2.44;100.00
19510;BME280;9896;42.486;26.506;2023-04-06T04:07:04;99458.88;;;2.26;100.00
19510;BME280;9896;42.486;26.506;2023-04-06T04:09:29;99436.06;;;2.25;100.00
19510;BME280;9896;42.486;26.506;2023-04-06T04:11:55;99460.22;;;2.30;100.00
19510;BME280;9896;42.486;26.506;2023-04-06T04:14:20;99442.03;;;2.35;100.00
19510;BME280;9896;42.486;26.506;2023-04-06T04:16:46;99441.53;;;2.40;100.00
19510;BME280;9896;42.486;26.506;2023-04-06T04:19:11;99449.78;;;2.53;100.00
19510;BME280;9896;42.486;26.506;2023-04-06T04:21:43;99443.34;;;2.47;100.00
19510;BME280;9896;42.486;26.506;2023-04-06T04:24:10;99453.59;;;2.58;100.00
19510;BME280;9896;42.486;26.506;2023-04-06T04:26:35;99436.25;;;2.40;100.00
19510;BME280;9896;42.486;26.506;2023-04-06T04:29:01;99452.44;;;2.69;100.00
19510;BME280;9896;42.486;26.506;2023-04-06T04:31:26;99445.00;;;2.64;100.00
19510;BME280;9896;42.486;26.506;2023-04-06T04:33:51;99446.34;;;2.60;100.00
19510;BME280;9896;42.486;26.506;2023-04-06T04:36:17;99445.13;;;2.87;100.00
19510;BME280;9896;42.486;26.506;2023-04-06T04:38:42;99438.50;;;2.91;100.00
19510;BME280;9896;42.486;26.506;2023-04-06T04:41:08;99434.88;;;2.92;100.00
19510;BME280;9896;42.486;26.506;2023-04-06T04:43:33;99440.31;;;2.83;100.00
19510;BME280;9896;42.486;26.506;2023-04-06T04:45:59;99431.06;;;2.87;100.00
19510;BME280;9896;42.486;26.506;2023-04-06T04:48:25;99427.41;;;2.96;100.00
19510;BME280;9896;42.486;26.506;2023-04-06T04:50:51;99433.06;;;2.76;100.00
19510;BME280;9896;42.486;26.506;2023-04-06T04:53:16;99431.56;;;2.82;100.00
19510;BME280;9896;42.486;26.506;2023-04-06T04:55:42;99443.44;;;2.94;100.00
19510;BME280;9896;42.486;26.506;2023-04-06T04:58:07;99440.81;;;2.94;100.00
19510;BME280;9896;42.486;26.506;2023-04-06T05:00:34;99452.56;;;3.00;100.00
19510;BME280;9896;42.486;26.506;2023-04-06T05:02:59;99457.34;;;3.04;100.00
19510;BME280;9896;42.486;26.506;2023-04-06T05:05:25;99444.28;;;2.95;100.00
19510;BME280;9896;42.486;26.506;2023-04-06T05:07:51;99446.06;;;3.10;100.00
19510;BME280;9896;42.486;26.506;2023-04-06T05:10:16;99451.31;;;3.26;100.00
19510;BME280;9896;42.486;26.506;2023-04-06T05:12:42;99448.78;;;3.41;100.00
19510;BME280;9896;42.486;26.506;2023-04-06T05:15:08;99445.25;;;3.57;100.00
19510;BME280;9896;42.486;26.506;2023-04-06T05:17:34;99433.53;;;3.43;100.00
19510;BME280;9896;42.486;26.506;2023-04-06T05:19:59;99440.03;;;3.33;100.00
19510;BME280;9896;42.486;26.506;2023-04-06T05:22:25;99435.50;;;3.49;100.00
19510;BME280;9896;42.486;26.506;2023-04-06T05:24:51;99439.00;;;3.42;100.00
19510;BME280;9896;42.486;26.506;2023-04-06T05:27:16;99439.09;;;3.56;100.00
19510;BME280;9896;42.486;26.506;2023-04-06T05:29:42;99437.75;;;3.60;100.00
19510;BME280;9896;42.486;26.506;2023-04-06T05:32:07;99433.38;;;3.75;100.00
19510;BME280;9896;42.486;26.506;2023-04-06T05:34:33;99424.69;;;3.90;100.00
19510;BME280;9896;42.486;26.506;2023-04-06T05:36:58;99432.16;;;4.09;100.00
19510;BME280;9896;42.486;26.506;2023-04-06T05:39:24;99429.72;;;4.07;100.00
19510;BME280;9896;42.486;26.506;2023-04-06T05:41:50;99418.25;;;3.84;100.00
19510;BME280;9896;42.486;26.506;2023-04-06T05:44:15;99419.50;;;3.96;100.00
19510;BME280;9896;42.486;26.506;2023-04-06T05:46:41;99423.63;;;4.21;100.00
19510;BME280;9896;42.486;26.506;2023-04-06T05:49:06;99434.72;;;4.02;100.00
19510;BME280;9896;42.486;26.506;2023-04-06T05:51:31;99420.44;;;4.26;100.00
19510;BME280;9896;42.486;26.506;2023-04-06T05:53:57;99419.78;;;4.24;100.00
19510;BME280;9896;42.486;26.506;2023-04-06T05:56:23;99429.97;;;4.12;100.00
19510;BME280;9896;42.486;26.506;2023-04-06T05:58:49;99420.59;;;4.25;100.00
19510;BME280;9896;42.486;26.506;2023-04-06T06:01:14;99427.81;;;4.39;100.00
19510;BME280;9896;42.486;26.506;2023-04-06T06:03:40;99423.91;;;4.04;100.00
19510;BME280;9896;42.486;26.506;2023-04-06T06:06:05;99417.84;;;3.95;100.00
19510;BME280;9896;42.486;26.506;2023-04-06T06:08:31;99418.91;;;4.09;100.00
19510;BME280;9896;42.486;26.506;2023-04-06T06:10:57;99421.25;;;4.04;100.00
19510;BME280;9896;42.486;26.506;2023-04-06T06:13:23;99406.78;;;4.14;100.00
19510;BME280;9896;42.486;26.506;2023-04-06T06:15:49;99420.53;;;3.87;100.00
19510;BME280;9896;42.486;26.506;2023-04-06T06:18:15;99404.22;;;3.98;100.00
19510;BME280;9896;42.486;26.506;2023-04-06T06:20:41;99411.72;;;4.17;100.00
19510;BME280;9896;42.486;26.506;2023-04-06T06:23:06;99411.53;;;4.42;100.00
19510;BME280;9896;42.486;26.506;2023-04-06T06:25:32;99413.09;;;4.51;100.00
19510;BME280;9896;42.486;26.506;2023-04-06T06:27:58;99404.75;;;4.77;100.00
19510;BME280;9896;42.486;26.506;2023-04-06T06:30:24;99419.56;;;4.71;100.00
19510;BME280;9896;42.486;26.506;2023-04-06T06:32:50;99416.38;;;4.76;100.00
19510;BME280;9896;42.486;26.506;2023-04-06T06:35:16;99421.22;;;4.72;100.00
19510;BME280;9896;42.486;26.506;2023-04-06T06:37:41;99427.63;;;4.78;100.00
19510;BME280;9896;42.486;26.506;2023-04-06T06:40:08;99431.56;;;4.82;100.00
19510;BME280;9896;42.486;26.506;2023-04-06T06:42:34;99421.88;;;5.03;100.00
19510;BME280;9896;42.486;26.506;2023-04-06T06:44:59;99430.38;;;4.84;100.00
19510;BME280;9896;42.486;26.506;2023-04-06T06:47:25;99416.09;;;4.85;100.00
19510;BME280;9896;42.486;26.506;2023-04-06T06:49:51;99432.50;;;4.89;100.00
19510;BME280;9896;42.486;26.506;2023-04-06T06:52:16;99419.41;;;4.87;100.00
19510;BME280;9896;42.486;26.506;2023-04-06T06:54:42;99426.28;;;4.96;100.00
19510;BME280;9896;42.486;26.506;2023-04-06T06:57:08;99419.97;;;5.12;100.00
19510;BME280;9896;42.486;26.506;2023-04-06T06:59:34;99422.19;;;5.59;100.00
19510;BME280;9896;42.486;26.506;2023-04-06T07:01:59;99429.72;;;5.70;100.00
19510;BME280;9896;42.486;26.506;2023-04-06T07:04:25;99426.56;;;5.81;100.00
19510;BME280;9896;42.486;26.506;2023-04-06T07:06:50;99424.75;;;5.67;100.00
19510;BME280;9896;42.486;26.506;2023-04-06T07:09:17;99417.34;;;5.62;100.00
19510;BME280;9896;42.486;26.506;2023-04-06T07:11:43;99428.16;;;5.90;100.00
19510;BME280;9896;42.486;26.506;2023-04-06T07:14:09;99422.22;;;6.31;100.00
19510;BME280;9896;42.486;26.506;2023-04-06T07:16:34;99436.16;;;6.82;100.00
19510;BME280;9896;42.486;26.506;2023-04-06T07:19:00;99435.47;;;6.73;100.00
19510;BME280;9896;42.486;26.506;2023-04-06T07:21:25;99430.84;;;6.61;100.00
19510;BME280;9896;42.486;26.506;2023-04-06T07:23:51;99426.31;;;6.82;100.00
19510;BME280;9896;42.486;26.506;2023-04-06T07:26:17;99433.41;;;6.96;100.00
19510;BME280;9896;42.486;26.506;2023-04-06T07:28:42;99425.69;;;7.08;100.00
19510;BME280;9896;42.486;26.506;2023-04-06T07:31:09;99434.47;;;7.36;100.00
19510;BME280;9896;42.486;26.506;2023-04-06T07:33:34;99428.66;;;7.67;98.70
19510;BME280;9896;42.486;26.506;2023-04-06T07:36:00;99429.53;;;7.81;96.03
19510;BME280;9896;42.486;26.506;2023-04-06T07:38:25;99432.03;;;7.95;94.93
19510;BME280;9896;42.486;26.506;2023-04-06T07:40:51;99432.91;;;8.09;93.22
19510;BME280;9896;42.486;26.506;2023-04-06T07:43:16;99442.94;;;8.01;93.17
19510;BME280;9896;42.486;26.506;2023-04-06T07:45:42;99428.66;;;7.67;95.42
19510;BME280;9896;42.486;26.506;2023-04-06T07:48:07;99426.63;;;7.76;93.83
19510;BME280;9896;42.486;26.506;2023-04-06T07:50:33;99430.91;;;7.64;95.13
19510;BME280;9896;42.486;26.506;2023-04-06T07:52:58;99429.28;;;7.69;94.78
19510;BME280;9896;42.486;26.506;2023-04-06T07:55:25;99431.63;;;7.92;91.50
19510;BME280;9896;42.486;26.506;2023-04-06T07:57:51;99426.31;;;7.99;89.32
19510;BME280;9896;42.486;26.506;2023-04-06T08:00:16;99421.00;;;8.12;89.33
19510;BME280;9896;42.486;26.506;2023-04-06T08:02:42;99422.72;;;8.52;85.06
19510;BME280;9896;42.486;26.506;2023-04-06T08:05:08;99432.19;;;8.61;82.01
19510;BME280;9896;42.486;26.506;2023-04-06T08:07:34;99417.63;;;8.64;81.89
19510;BME280;9896;42.486;26.506;2023-04-06T08:10:01;99424.38;;;8.86;80.79
19510;BME280;9896;42.486;26.506;2023-04-06T08:12:26;99422.28;;;9.14;78.42
19510;BME280;9896;42.486;26.506;2023-04-06T08:14:52;99415.88;;;9.79;75.58
19510;BME280;9896;42.486;26.506;2023-04-06T08:17:17;99424.34;;;9.76;75.20
19510;BME280;9896;42.486;26.506;2023-04-06T08:19:43;99417.25;;;9.51;79.01
19510;BME280;9896;42.486;26.506;2023-04-06T08:22:10;99403.78;;;9.06;78.37
19510;BME280;9896;42.486;26.506;2023-04-06T08:24:35;99420.44;;;9.15;79.31
19510;BME280;9896;42.486;26.506;2023-04-06T08:27:01;99409.69;;;9.41;78.18
19510;BME280;9896;42.486;26.506;2023-04-06T08:29:27;99418.69;;;9.47;75.13
19510;BME280;9896;42.486;26.506;2023-04-06T08:31:52;99406.59;;;9.31;73.70
19510;BME280;9896;42.486;26.506;2023-04-06T08:34:18;99404.13;;;9.36;74.18
19510;BME280;9896;42.486;26.506;2023-04-06T08:36:43;99395.97;;;9.11;74.48
19510;BME280;9896;42.486;26.506;2023-04-06T08:39:09;99411.56;;;9.27;74.57
19510;BME280;9896;42.486;26.506;2023-04-06T08:41:35;99392.84;;;9.14;76.59
19510;BME280;9896;42.486;26.506;2023-04-06T08:44:02;99394.41;;;9.48;76.69
19510;BME280;9896;42.486;26.506;2023-04-06T08:46:30;99394.69;;;10.22;74.13
19510;BME280;9896;42.486;26.506;2023-04-06T08:49:00;99388.53;;;10.09;72.11
19510;BME280;9896;42.486;26.506;2023-04-06T08:51:27;99384.88;;;9.59;74.22
19510;BME280;9896;42.486;26.506;2023-04-06T08:53:57;99387.59;;;9.97;74.84
19510;BME280;9896;42.486;26.506;2023-04-06T08:56:24;99381.78;;;10.38;72.39
19510;BME280;9896;42.486;26.506;2023-04-06T08:58:50;99366.47;;;10.13;72.43
19510;BME280;9896;42.486;26.506;2023-04-06T09:01:20;99353.06;;;9.44;73.67
19510;BME280;9896;42.486;26.506;2023-04-06T09:03:46;99361.31;;;9.29;75.07
19510;BME280;9896;42.486;26.506;2023-04-06T09:06:13;99374.50;;;9.82;73.80
19510;BME280;9896;42.486;26.506;2023-04-06T09:08:40;99377.75;;;9.40;75.61
19510;BME280;9896;42.486;26.506;2023-04-06T09:11:06;99375.72;;;9.35;76.39
19510;BME280;9896;42.486;26.506;2023-04-06T09:13:44;99382.88;;;9.92;72.88
19510;BME280;9896;42.486;26.506;2023-04-06T09:16:10;99367.16;;;10.02;73.90
19510;BME280;9896;42.486;26.506;2023-04-06T09:18:36;99367.44;;;9.94;76.32
19510;BME280;9896;42.486;26.506;2023-04-06T09:21:06;99370.41;;;10.42;74.08
19510;BME280;9896;42.486;26.506;2023-04-06T09:23:31;99371.94;;;10.56;73.18
19510;BME280;9896;42.486;26.506;2023-04-06T09:26:16;99369.31;;;10.25;71.21
19510;BME280;9896;42.486;26.506;2023-04-06T09:28:51;99366.44;;;10.51;70.12
19510;BME280;9896;42.486;26.506;2023-04-06T09:31:22;99354.03;;;9.50;73.44
19510;BME280;9896;42.486;26.506;2023-04-06T09:33:48;99367.56;;;10.06;73.51
19510;BME280;9896;42.486;26.506;2023-04-06T09:36:14;99367.06;;;10.22;73.29
19510;BME280;9896;42.486;26.506;2023-04-06T09:38:56;99367.25;;;9.82;74.91
19510;BME280;9896;42.486;26.506;2023-04-06T09:41:26;99364.59;;;10.20;69.38
19510;BME280;9896;42.486;26.506;2023-04-06T09:44:19;99356.03;;;9.99;70.79
19510;BME280;9896;42.486;26.506;2023-04-06T09:46:46;99359.47;;;9.74;69.41
19510;BME280;9896;42.486;26.506;2023-04-06T09:49:13;99357.88;;;10.61;67.78
19510;BME280;9896;42.486;26.506;2023-04-06T09:51:53;99358.13;;;10.59;66.84
19510;BME280;9896;42.486;26.506;2023-04-06T09:54:22;99348.97;;;10.85;66.75
19510;BME280;9896;42.486;26.506;2023-04-06T10:02:30;99358.84;;;9.41;72.80
19510;BME280;9896;42.486;26.506;2023-04-06T10:05:05;99355.56;;;9.77;71.72
19510;BME280;9896;42.486;26.506;2023-04-06T10:07:33;99353.78;;;9.64;69.67
19510;BME280;9896;42.486;26.506;2023-04-06T10:10:02;99362.19;;;9.68;68.27
19510;BME280;9896;42.486;26.506;2023-04-06T10:12:28;99363.63;;;9.70;69.61
19510;BME280;9896;42.486;26.506;2023-04-06T10:14:53;99351.28;;;9.69;68.62
19510;BME280;9896;42.486;26.506;2023-04-06T10:17:19;99354.97;;;10.06;69.13
19510;BME280;9896;42.486;26.506;2023-04-06T10:20:21;99351.84;;;10.16;69.32
19510;BME280;9896;42.486;26.506;2023-04-06T10:23:01;99347.78;;;10.38;66.48
19510;BME280;9896;42.486;26.506;2023-04-06T10:25:31;99340.72;;;11.05;64.28
19510;BME280;9896;42.486;26.506;2023-04-06T10:28:10;99345.19;;;11.29;62.73
19510;BME280;9896;42.486;26.506;2023-04-06T10:30:42;99342.72;;;10.73;63.79
19510;BME280;9896;42.486;26.506;2023-04-06T10:33:20;99331.34;;;10.53;64.25
19510;BME280;9896;42.486;26.506;2023-04-06T10:35:45;99337.50;;;10.78;63.46
19510;BME280;9896;42.486;26.506;2023-04-06T10:38:11;99335.53;;;10.92;64.93
19510;BME280;9896;42.486;26.506;2023-04-06T10:40:40;99336.75;;;10.89;64.43
19510;BME280;9896;42.486;26.506;2023-04-06T10:43:10;99332.53;;;11.36;62.29
19510;BME280;9896;42.486;26.506;2023-04-06T10:45:37;99333.09;;;11.56;61.33
19510;BME280;9896;42.486;26.506;2023-04-06T10:48:18;99334.03;;;11.62;58.37
19510;BME280;9896;42.486;26.506;2023-04-06T10:50:52;99332.81;;;11.46;58.86
19510;BME280;9896;42.486;26.506;2023-04-06T10:53:25;99328.72;;;11.44;59.88
19510;BME280;9896;42.486;26.506;2023-04-06T10:55:52;99320.16;;;11.17;59.90
19510;BME280;9896;42.486;26.506;2023-04-06T10:58:17;99321.13;;;11.41;61.06
19510;BME280;9896;42.486;26.506;2023-04-06T11:00:44;99304.19;;;11.88;56.72
19510;BME280;9896;42.486;26.506;2023-04-06T11:03:10;99312.06;;;11.72;58.24
19510;BME280;9896;42.486;26.506;2023-04-06T11:05:36;99315.47;;;11.79;58.03
19510;BME280;9896;42.486;26.506;2023-04-06T11:08:01;99307.91;;;11.39;58.14
19510;BME280;9896;42.486;26.506;2023-04-06T11:10:26;99305.91;;;11.53;56.30
19510;BME280;9896;42.486;26.506;2023-04-06T11:12:55;99305.72;;;11.96;55.07
19510;BME280;9896;42.486;26.506;2023-04-06T11:15:21;99304.03;;;12.94;52.34
19510;BME280;9896;42.486;26.506;2023-04-06T11:17:47;99304.28;;;12.81;52.53
19510;BME280;9896;42.486;26.506;2023-04-06T11:20:14;99305.88;;;12.24;56.21
19510;BME280;9896;42.486;26.506;2023-04-06T11:22:52;99294.13;;;11.84;55.27
19510;BME280;9896;42.486;26.506;2023-04-06T11:25:18;99303.88;;;11.48;57.31
19510;BME280;9896;42.486;26.506;2023-04-06T11:27:45;99308.81;;;11.33;57.54
19510;BME280;9896;42.486;26.506;2023-04-06T11:30:12;99303.53;;;11.45;57.47
19510;BME280;9896;42.486;26.506;2023-04-06T11:32:45;99299.13;;;11.62;56.69
19510;BME280;9896;42.486;26.506;2023-04-06T11:35:21;99298.09;;;11.63;56.13
19510;BME280;9896;42.486;26.506;2023-04-06T11:37:50;99304.00;;;11.24;58.17
19510;BME280;9896;42.486;26.506;2023-04-06T11:40:23;99304.53;;;10.96;60.33
19510;BME280;9896;42.486;26.506;2023-04-06T11:42:54;99297.72;;;11.30;57.89
19510;BME280;9896;42.486;26.506;2023-04-06T11:45:19;99305.19;;;11.09;59.23
19510;BME280;9896;42.486;26.506;2023-04-06T11:47:45;99299.97;;;11.14;58.62
19510;BME280;9896;42.486;26.506;2023-04-06T11:50:13;99294.59;;;11.14;58.28
19510;BME280;9896;42.486;26.506;2023-04-06T11:52:40;99287.72;;;11.66;56.39
19510;BME280;9896;42.486;26.506;2023-04-06T11:55:14;99295.53;;;11.38;58.69
19510;BME280;9896;42.486;26.506;2023-04-06T11:57:41;99294.19;;;11.47;56.32
19510;BME280;9896;42.486;26.506;2023-04-06T12:00:08;99291.22;;;11.37;57.05
19510;BME280;9896;42.486;26.506;2023-04-06T12:02:35;99304.50;;;11.14;58.21
19510;BME280;9896;42.486;26.506;2023-04-06T12:05:02;99297.97;;;10.92;57.56
19510;BME280;9896;42.486;26.506;2023-04-06T12:07:29;99293.78;;;11.32;57.83
19510;BME280;9896;42.486;26.506;2023-04-06T12:09:55;99292.31;;;11.48;56.03
19510;BME280;9896;42.486;26.506;2023-04-06T12:12:20;99287.47;;;11.08;57.08
19510;BME280;9896;42.486;26.506;2023-04-06T12:14:46;99294.09;;;11.06;57.28
19510;BME280;9896;42.486;26.506;2023-04-06T12:17:11;99299.81;;;11.09;57.84
19510;BME280;9896;42.486;26.506;2023-04-06T12:19:36;99301.53;;;10.86;58.82
19510;BME280;9896;42.486;26.506;2023-04-06T12:22:02;99297.59;;;11.06;57.61
19510;BME280;9896;42.486;26.506;2023-04-06T12:24:28;99290.44;;;11.18;56.84
19510;BME280;9896;42.486;26.506;2023-04-06T12:26:54;99282.47;;;11.12;58.78
19510;BME280;9896;42.486;26.506;2023-04-06T12:29:19;99284.53;;;11.10;58.06
19510;BME280;9896;42.486;26.506;2023-04-06T12:31:45;99283.88;;;10.96;58.71
19510;BME280;9896;42.486;26.506;2023-04-06T12:34:11;99278.28;;;10.98;58.30
19510;BME280;9896;42.486;26.506;2023-04-06T12:36:37;99280.78;;;11.29;57.69
19510;BME280;9896;42.486;26.506;2023-04-06T12:39:04;99270.34;;;11.39;56.39
19510;BME280;9896;42.486;26.506;2023-04-06T12:41:29;99271.84;;;12.06;53.83
19510;BME280;9896;42.486;26.506;2023-04-06T12:43:55;99262.44;;;12.39;52.54
19510;BME280;9896;42.486;26.506;2023-04-06T12:46:22;99257.75;;;12.46;52.34
19510;BME280;9896;42.486;26.506;2023-04-06T12:48:48;99258.81;;;12.33;52.43
19510;BME280;9896;42.486;26.506;2023-04-06T12:51:14;99266.56;;;11.58;55.01
19510;BME280;9896;42.486;26.506;2023-04-06T12:53:39;99269.56;;;11.50;56.92
19510;BME280;9896;42.486;26.506;2023-04-06T12:56:16;99259.06;;;11.49;57.76
19510;BME280;9896;42.486;26.506;2023-04-06T12:58:46;99267.50;;;11.34;58.88
19510;BME280;9896;42.486;26.506;2023-04-06T13:01:12;99267.31;;;11.65;57.90
19510;BME280;9896;42.486;26.506;2023-04-06T13:03:38;99267.22;;;11.72;58.99
19510;BME280;9896;42.486;26.506;2023-04-06T13:06:04;99252.00;;;12.07;57.23